Time;durP1;ratioP1;P1;durP2;ratioP2;P2;SDS_P1;SDS_P2;PMS_P1;PMS_P2;Temp;Humidity;BMP_temperature;BMP_pressure;BME280_temperature;BME280_humidity;BME280_pressure;Samples;Min_cycle;Max_cycle;Signal;HPM_P1;HPM_P2
2023/01/29 00:01:25;;;;;;;11.05;7.43;;;4.10;99.90;;;;;;5040378;28;20126;-92
2023/01/29 00:03:51;;;;;;;14.75;7.97;;;4.00;99.90;;;;;;5045241;28;20302;-91
2023/01/29 00:06:20;;;;;;;14.07;8.68;;;4.00;99.90;;;;;;5036999;28;20277;-91
2023/01/29 00:08:49;;;;;;;14.05;8.45;;;4.00;99.90;;;;;;5057524;28;20054;-91
2023/01/29 00:11:21;;;;;;;11.55;7.90;;;4.10;99.90;;;;;;5039463;28;20162;-91
2023/01/29 00:13:46;;;;;;;14.35;8.77;;;4.00;99.90;;;;;;5044308;28;20044;-91
2023/01/29 00:16:12;;;;;;;15.15;8.73;;;4.00;99.90;;;;;;5059656;28;20056;-92
2023/01/29 00:18:39;;;;;;;13.10;8.40;;;4.00;99.90;;;;;;5041931;28;20090;-91
2023/01/29 00:21:17;;;;;;;13.00;9.10;;;4.00;99.90;;;;;;5039250;28;20509;-91
2023/01/29 00:23:43;;;;;;;13.75;9.77;;;4.00;99.90;;;;;;5054236;28;20908;-91
2023/01/29 00:26:10;;;;;;;14.88;9.50;;;4.10;99.90;;;;;;5044601;28;20159;-92
2023/01/29 00:28:35;;;;;;;14.68;10.10;;;4.00;99.90;;;;;;5039689;28;20065;-91
2023/01/29 00:31:31;;;;;;;16.60;9.93;;;4.00;99.90;;;;;;5040627;28;20048;-91
2023/01/29 00:33:57;;;;;;;17.20;11.20;;;4.10;99.90;;;;;;5027161;28;20396;-92
2023/01/29 00:36:24;;;;;;;16.10;10.32;;;4.00;99.90;;;;;;5039893;28;20086;-91
2023/01/29 00:38:58;;;;;;;18.65;10.68;;;4.10;99.90;;;;;;5056228;28;20351;-92
2023/01/29 00:46:56;;;;;;;16.95;11.05;;;4.10;99.90;;;;;;5055421;28;20102;-91
2023/01/29 00:49:22;;;;;;;17.48;11.63;;;4.10;99.90;;;;;;5054554;28;20507;-91
2023/01/29 00:52:22;;;;;;;17.75;11.90;;;4.10;99.90;;;;;;5055715;28;20560;-91
2023/01/29 00:54:33;;;;;;;21.13;12.75;;;4.10;99.90;;;;;;5057428;28;20129;-91
2023/01/29 00:57:00;;;;;;;20.65;13.55;;;4.10;99.90;;;;;;5057888;28;20187;-92
2023/01/29 00:59:26;;;;;;;18.08;12.60;;;4.00;99.90;;;;;;5040626;28;20040;-92
2023/01/29 01:04:35;;;;;;;20.80;13.77;;;4.10;99.90;;;;;;5055623;28;20051;-91
2023/01/29 01:07:01;;;;;;;21.65;13.40;;;4.10;99.90;;;;;;5042311;28;20415;-91
2023/01/29 01:12:11;;;;;;;22.83;14.85;;;4.10;99.90;;;;;;5056248;28;20044;-92
2023/01/29 01:14:36;;;;;;;20.70;14.13;;;4.10;99.90;;;;;;5042742;28;20577;-90
2023/01/29 01:17:02;;;;;;;22.15;14.27;;;4.10;99.90;;;;;;5041717;28;20506;-92
2023/01/29 01:19:28;;;;;;;20.48;14.07;;;4.10;99.90;;;;;;5043418;28;20047;-91
2023/01/29 01:21:54;;;;;;;23.60;14.68;;;4.10;99.90;;;;;;5038378;28;20041;-92
2023/01/29 01:24:19;;;;;;;23.15;14.95;;;4.20;99.90;;;;;;5040637;28;20036;-91
2023/01/29 01:26:45;;;;;;;20.88;14.63;;;4.20;99.90;;;;;;5056027;28;20037;-91
2023/01/29 01:29:11;;;;;;;21.40;13.82;;;4.20;99.90;;;;;;5056644;28;20111;-91
2023/01/29 01:31:37;;;;;;;23.30;15.23;;;4.20;99.90;;;;;;5038031;28;20560;-91
2023/01/29 01:34:03;;;;;;;21.48;14.35;;;4.20;99.90;;;;;;5042641;28;20040;-92
2023/01/29 01:36:31;;;;;;;24.83;15.30;;;4.20;99.90;;;;;;5055789;28;20086;-91
2023/01/29 01:39:00;;;;;;;22.33;14.90;;;4.20;99.90;;;;;;5056806;28;20051;-91
2023/01/29 01:41:25;;;;;;;25.45;16.13;;;4.30;99.90;;;;;;5038817;28;20072;-92
2023/01/29 01:44:00;;;;;;;24.15;16.10;;;4.30;99.90;;;;;;5039658;28;20071;-91
2023/01/29 01:46:36;;;;;;;25.80;16.58;;;4.20;99.90;;;;;;5041363;28;20525;-92
2023/01/29 01:49:10;;;;;;;23.58;15.70;;;4.20;99.90;;;;;;5040407;28;20577;-92
2023/01/29 01:51:40;;;;;;;24.85;15.93;;;4.30;99.90;;;;;;5058187;28;20040;-91
2023/01/29 01:54:13;;;;;;;25.15;17.33;;;4.20;99.90;;;;;;5054232;28;20045;-92
2023/01/29 01:56:44;;;;;;;26.60;17.35;;;4.20;99.90;;;;;;5054777;28;20044;-92
2023/01/29 01:59:13;;;;;;;28.35;17.73;;;4.20;99.90;;;;;;5054485;28;20078;-91
2023/01/29 02:01:48;;;;;;;29.13;18.83;;;4.20;99.90;;;;;;5038579;28;20040;-91
2023/01/29 02:09:53;;;;;;;29.42;19.42;;;4.30;99.90;;;;;;5056802;28;20063;-91
2023/01/29 02:12:20;;;;;;;27.42;18.25;;;4.30;99.90;;;;;;5056090;28;20072;-91
2023/01/29 02:14:46;;;;;;;28.15;18.42;;;4.30;99.90;;;;;;5041133;28;20553;-91
2023/01/29 02:17:15;;;;;;;29.80;19.50;;;4.30;99.90;;;;;;5038922;28;20075;-90
2023/01/29 02:20:07;;;;;;;31.80;20.52;;;4.30;99.90;;;;;;5038636;28;20427;-91
2023/01/29 02:22:54;;;;;;;30.95;19.80;;;4.30;99.90;;;;;;5057115;28;20024;-91
2023/01/29 02:25:51;;;;;;;33.08;19.77;;;4.30;99.90;;;;;;5062671;28;20068;-91
2023/01/29 02:29:21;;;;;;;32.00;20.15;;;4.30;99.90;;;;;;5052793;28;20045;-91
2023/01/29 02:32:13;;;;;;;33.70;20.63;;;4.30;99.90;;;;;;5061568;28;20041;-91
2023/01/29 02:35:33;;;;;;;27.55;18.75;;;4.20;99.90;;;;;;5061265;28;20060;-91
2023/01/29 02:38:29;;;;;;;27.67;18.83;;;4.30;99.90;;;;;;5018743;28;20155;-92
2023/01/29 02:40:56;;;;;;;26.90;18.65;;;4.20;99.90;;;;;;5057104;28;20181;-92
2023/01/29 02:43:38;;;;;;;31.63;20.75;;;4.30;99.90;;;;;;5061458;28;20044;-91
2023/01/29 02:46:19;;;;;;;29.58;19.05;;;4.30;99.90;;;;;;5060986;28;20060;-91
2023/01/29 02:48:58;;;;;;;29.45;18.27;;;4.30;99.90;;;;;;5057313;28;20075;-91
2023/01/29 02:52:03;;;;;;;30.80;19.10;;;4.30;99.90;;;;;;5040441;28;20040;-91
2023/01/29 02:54:48;;;;;;;28.77;18.48;;;4.20;99.90;;;;;;5058951;28;20037;-91
2023/01/29 02:57:16;;;;;;;26.30;18.17;;;4.30;99.90;;;;;;5058461;28;20094;-91
2023/01/29 02:59:53;;;;;;;26.15;17.83;;;4.30;99.90;;;;;;5057292;28;20037;-91
2023/01/29 03:02:27;;;;;;;27.08;17.95;;;4.30;99.90;;;;;;5042101;28;20610;-92
2023/01/29 03:04:59;;;;;;;27.85;19.08;;;4.30;99.90;;;;;;5041142;28;20032;-91
2023/01/29 03:07:46;;;;;;;26.35;17.75;;;4.30;99.90;;;;;;5060243;28;20044;-91
2023/01/29 03:10:27;;;;;;;28.73;18.77;;;4.30;99.90;;;;;;5042033;28;20036;-91
2023/01/29 03:13:19;;;;;;;26.50;17.73;;;4.30;99.90;;;;;;5041593;28;20063;-91
2023/01/29 03:15:53;;;;;;;26.00;17.38;;;4.30;99.90;;;;;;5028264;28;20040;-93
2023/01/29 03:18:29;;;;;;;26.20;17.63;;;4.30;99.90;;;;;;5040206;28;20041;-84
2023/01/29 03:21:48;;;;;;;27.35;16.55;;;4.30;99.90;;;;;;5042220;28;20121;-84
2023/01/29 03:32:06;;;;;;;25.35;17.30;;;4.40;99.90;;;;;;5054051;28;20047;-84
2023/01/29 03:34:47;;;;;;;24.35;17.92;;;4.40;99.90;;;;;;5033046;28;20156;-84
2023/01/29 03:37:18;;;;;;;24.42;16.83;;;4.40;99.90;;;;;;5048616;28;20126;-84
2023/01/29 03:39:46;;;;;;;25.30;17.45;;;4.50;99.90;;;;;;5036429;28;20452;-84
2023/01/29 03:42:23;;;;;;;26.98;18.00;;;4.40;99.90;;;;;;5053832;28;20033;-84
2023/01/29 03:45:10;;;;;;;25.23;16.50;;;4.40;99.90;;;;;;5053563;28;20041;-83
2023/01/29 03:47:55;;;;;;;25.35;18.00;;;4.50;99.90;;;;;;5056470;28;20028;-84
2023/01/29 03:50:29;;;;;;;26.58;18.65;;;4.40;99.90;;;;;;5055966;28;20067;-84
2023/01/29 03:53:26;;;;;;;26.02;17.70;;;4.40;99.90;;;;;;5048255;28;20040;-84
2023/01/29 03:56:01;;;;;;;25.80;17.70;;;4.40;99.90;;;;;;5055373;28;20109;-84
2023/01/29 03:58:35;;;;;;;;;;;4.40;99.90;;;;;;5039745;28;20115;-83
2023/01/29 04:01:15;;;;;;;26.23;17.83;;;4.40;99.90;;;;;;5037054;28;20383;-84
2023/01/29 04:03:52;;;;;;;28.75;18.67;;;4.40;99.90;;;;;;5035486;28;20286;-84
2023/01/29 04:06:26;;;;;;;27.27;19.20;;;4.40;99.90;;;;;;5036937;28;20495;-84
2023/01/29 04:09:06;;;;;;;28.00;19.15;;;4.40;99.90;;;;;;5036898;28;20582;-84
2023/01/29 04:11:36;;;;;;;29.85;18.90;;;4.40;99.90;;;;;;5056351;28;20078;-84
2023/01/29 04:14:02;;;;;;;29.60;18.40;;;4.40;99.90;;;;;;5034469;28;20049;-84
2023/01/29 04:16:34;;;;;;;28.40;19.05;;;4.40;99.90;;;;;;5039460;28;20526;-84
2023/01/29 04:19:00;;;;;;;30.15;18.00;;;4.40;99.90;;;;;;5037601;28;20044;-85
2023/01/29 04:21:26;;;;;;;28.33;18.95;;;4.40;99.90;;;;;;5036865;28;20037;-84
2023/01/29 04:23:53;;;;;;;30.95;18.95;;;4.40;99.90;;;;;;5034972;28;20044;-84
2023/01/29 04:26:31;;;;;;;27.60;19.08;;;4.40;99.90;;;;;;5035917;28;20405;-84
2023/01/29 04:29:16;;;;;;;28.67;19.02;;;4.40;99.90;;;;;;5040213;28;20722;-84
2023/01/29 04:32:10;;;;;;;30.73;18.87;;;4.40;99.90;;;;;;5054894;28;20039;-84
2023/01/29 04:34:50;;;;;;;28.90;18.50;;;4.40;99.90;;;;;;5053326;28;20670;-83
2023/01/29 04:37:32;;;;;;;29.23;18.80;;;4.40;99.90;;;;;;5051168;28;20113;-84
2023/01/29 04:40:12;;;;;;;30.85;19.13;;;4.40;99.90;;;;;;5054828;28;20071;-84
2023/01/29 04:42:50;;;;;;;29.95;17.67;;;4.40;99.90;;;;;;5038385;28;20041;-84
2023/01/29 04:45:43;;;;;;;28.77;18.65;;;4.40;99.90;;;;;;5035777;28;20460;-84
2023/01/29 04:48:39;;;;;;;27.13;17.80;;;4.40;99.90;;;;;;5033622;28;20029;-84
2023/01/29 04:51:40;;;;;;;23.85;17.13;;;4.40;99.90;;;;;;5051268;28;20075;-84
2023/01/29 04:54:41;;;;;;;26.38;17.90;;;4.40;99.90;;;;;;5030349;28;20048;-84
2023/01/29 04:57:45;;;;;;;27.60;17.98;;;4.40;99.90;;;;;;5050022;28;20171;-84
2023/01/29 05:00:24;;;;;;;25.80;17.60;;;4.40;99.90;;;;;;5051567;28;20072;-84
2023/01/29 05:02:51;;;;;;;29.10;18.48;;;4.50;99.90;;;;;;5055367;28;20032;-84
2023/01/29 05:05:19;;;;;;;27.92;17.90;;;4.40;99.90;;;;;;5051051;28;20032;-84
2023/01/29 05:07:52;;;;;;;29.58;18.35;;;4.40;99.90;;;;;;5030239;28;20041;-84
2023/01/29 05:10:20;;;;;;;29.05;17.63;;;4.40;99.90;;;;;;5067168;28;20344;-84
2023/01/29 05:12:55;;;;;;;28.10;19.35;;;4.40;99.90;;;;;;5035149;28;20036;-84
2023/01/29 05:15:37;;;;;;;25.55;17.63;;;4.40;99.90;;;;;;5034507;28;20048;-84
2023/01/29 05:18:07;;;;;;;28.10;17.20;;;4.40;99.90;;;;;;5050824;28;20051;-84
2023/01/29 05:20:38;;;;;;;28.73;18.08;;;4.40;99.90;;;;;;5052441;28;20043;-84
2023/01/29 05:23:17;;;;;;;27.17;18.25;;;4.40;99.90;;;;;;5034710;28;20155;-84
2023/01/29 05:25:44;;;;;;;27.40;19.00;;;4.40;99.90;;;;;;5054122;28;20508;-84
2023/01/29 05:28:16;;;;;;;30.55;19.05;;;4.40;99.90;;;;;;5037961;28;20024;-83
2023/01/29 05:30:49;;;;;;;27.92;19.17;;;4.40;99.90;;;;;;5039044;28;20069;-84
2023/01/29 05:33:33;;;;;;;32.30;20.17;;;4.40;99.90;;;;;;5052897;28;20109;-84
2023/01/29 05:35:59;;;;;;;31.52;19.88;;;4.30;99.90;;;;;;5053435;28;20044;-84
2023/01/29 05:38:28;;;;;;;32.53;19.90;;;4.30;99.90;;;;;;5049019;28;20048;-85
2023/01/29 05:40:53;;;;;;;30.73;20.50;;;4.30;99.90;;;;;;5036139;28;20045;-84
2023/01/29 05:43:21;;;;;;;31.80;20.80;;;4.30;99.90;;;;;;5054281;28;20040;-84
2023/01/29 05:45:58;;;;;;;31.13;19.80;;;4.30;99.90;;;;;;5052238;28;20566;-84
2023/01/29 05:48:26;;;;;;;30.35;20.13;;;4.30;99.90;;;;;;5051569;28;20408;-85
2023/01/29 05:50:52;;;;;;;32.42;21.17;;;4.30;99.90;;;;;;5052430;28;20087;-84
2023/01/29 05:53:17;;;;;;;32.58;21.80;;;4.30;99.90;;;;;;5029148;28;20562;-85
2023/01/29 05:55:47;;;;;;;36.75;23.40;;;4.30;99.90;;;;;;5038401;28;20089;-85
2023/01/29 05:58:13;;;;;;;34.13;22.17;;;4.30;99.90;;;;;;5042314;28;20119;-84
2023/01/29 06:00:39;;;;;;;35.83;22.27;;;4.30;99.90;;;;;;5041778;28;20128;-85
2023/01/29 06:03:05;;;;;;;34.42;21.80;;;4.30;99.90;;;;;;5041378;28;20064;-84
2023/01/29 06:05:31;;;;;;;37.92;23.80;;;4.30;99.90;;;;;;5038712;28;20078;-84
2023/01/29 06:07:57;;;;;;;40.58;24.17;;;4.30;99.90;;;;;;5036844;28;20407;-85
2023/01/29 06:10:23;;;;;;;36.70;23.73;;;4.30;99.90;;;;;;5056109;28;20055;-84
2023/01/29 06:12:48;;;;;;;39.78;23.75;;;4.30;99.90;;;;;;5037251;28;20062;-84
2023/01/29 06:15:14;;;;;;;37.53;24.05;;;4.30;99.90;;;;;;5024563;28;20518;-84
2023/01/29 06:17:43;;;;;;;39.78;24.92;;;4.30;99.90;;;;;;5042281;28;20055;-84
2023/01/29 06:20:09;;;;;;;38.47;24.63;;;4.40;99.90;;;;;;5028366;28;20702;-84
2023/01/29 06:22:35;;;;;;;37.50;24.42;;;4.40;99.90;;;;;;5040190;28;20042;-84
2023/01/29 06:25:00;;;;;;;35.88;23.65;;;4.40;99.90;;;;;;5023550;28;20391;-84
2023/01/29 06:27:26;;;;;;;35.80;23.85;;;4.40;99.90;;;;;;5012665;28;20041;-84
2023/01/29 06:29:52;;;;;;;41.17;24.38;;;4.40;99.90;;;;;;5028097;28;20036;-84
2023/01/29 06:32:18;;;;;;;37.85;24.48;;;4.50;99.90;;;;;;5024448;28;20044;-84
2023/01/29 06:34:43;;;;;;;38.00;25.48;;;4.50;99.90;;;;;;5024060;28;20046;-84
2023/01/29 06:37:09;;;;;;;39.03;25.08;;;4.40;99.90;;;;;;5021803;28;20082;-84
2023/01/29 06:39:35;;;;;;;39.28;26.45;;;4.40;99.90;;;;;;5022576;28;20048;-84
2023/01/29 06:42:00;;;;;;;44.28;27.55;;;4.40;99.90;;;;;;5035922;28;20040;-85
2023/01/29 06:44:28;;;;;;;42.88;27.48;;;4.50;99.90;;;;;;5025230;28;21908;-84
2023/01/29 06:46:54;;;;;;;43.28;26.13;;;4.40;99.90;;;;;;5023734;28;20479;-84
2023/01/29 06:49:20;;;;;;;41.53;25.85;;;4.50;99.90;;;;;;5037559;28;20364;-84
2023/01/29 06:51:46;;;;;;;40.13;26.38;;;4.50;99.90;;;;;;5022323;28;20048;-84
2023/01/29 06:54:11;;;;;;;39.28;24.58;;;4.40;99.90;;;;;;5022524;28;20040;-84
2023/01/29 06:56:37;;;;;;;39.38;25.30;;;4.50;99.90;;;;;;5021171;28;20076;-84
2023/01/29 06:59:03;;;;;;;40.10;26.63;;;4.50;99.90;;;;;;5014190;28;20407;-84
2023/01/29 07:01:29;;;;;;;38.72;25.55;;;4.50;99.90;;;;;;5037273;28;20033;-85
2023/01/29 07:03:54;;;;;;;40.22;26.52;;;4.50;99.90;;;;;;5035659;28;20058;-83
2023/01/29 07:06:21;;;;;;;36.45;25.42;;;4.40;99.90;;;;;;5019669;28;20201;-84
2023/01/29 07:08:46;;;;;;;38.88;25.88;;;4.40;99.90;;;;;;5053283;28;20054;-84
2023/01/29 07:11:12;;;;;;;43.08;26.20;;;4.50;99.90;;;;;;5020265;28;20462;-84
2023/01/29 07:13:38;;;;;;;39.00;25.05;;;4.40;99.90;;;;;;5016134;28;20088;-84
2023/01/29 07:16:05;;;;;;;40.03;27.30;;;4.30;99.90;;;;;;5024664;28;20079;-84
2023/01/29 07:18:31;;;;;;;38.50;25.33;;;4.40;99.90;;;;;;5040638;28;20040;-85
2023/01/29 07:20:57;;;;;;;37.63;25.42;;;4.30;99.90;;;;;;5037155;28;20044;-85
2023/01/29 07:23:23;;;;;;;38.40;26.42;;;4.30;99.90;;;;;;5052863;28;20376;-84
2023/01/29 07:25:49;;;;;;;38.25;26.45;;;4.30;99.90;;;;;;5017895;28;20029;-84
2023/01/29 07:28:17;;;;;;;38.75;26.20;;;4.30;99.90;;;;;;5039638;28;20087;-84
2023/01/29 07:30:43;;;;;;;37.30;26.40;;;4.30;99.90;;;;;;5023171;28;20048;-85
2023/01/29 07:33:09;;;;;;;41.92;27.40;;;4.30;99.90;;;;;;5019948;28;20056;-84
2023/01/29 07:35:37;;;;;;;42.78;27.67;;;4.30;99.90;;;;;;5020802;28;20044;-84
2023/01/29 07:38:03;;;;;;;42.80;27.42;;;4.20;99.90;;;;;;5033690;28;20415;-84
2023/01/29 07:40:29;;;;;;;42.63;28.65;;;4.20;99.90;;;;;;5021093;28;20044;-84
2023/01/29 07:43:03;;;;;;;42.17;28.83;;;4.20;99.90;;;;;;5038191;28;20101;-84
2023/01/29 07:45:30;;;;;;;42.03;29.58;;;4.20;99.90;;;;;;5036474;28;20178;-84
2023/01/29 07:47:56;;;;;;;43.03;28.25;;;4.20;99.90;;;;;;5037659;28;20634;-84
2023/01/29 07:50:23;;;;;;;43.25;27.60;;;4.20;99.90;;;;;;5019908;28;20040;-85
2023/01/29 07:52:52;;;;;;;39.95;26.83;;;4.30;99.90;;;;;;5016710;28;20523;-84
2023/01/29 07:55:17;;;;;;;42.45;27.17;;;4.30;99.90;;;;;;5023478;28;20514;-85
2023/01/29 07:57:43;;;;;;;39.63;27.00;;;4.30;99.90;;;;;;5022059;28;20045;-85
2023/01/29 08:00:10;;;;;;;39.25;26.60;;;4.40;99.90;;;;;;5021629;28;20352;-85
2023/01/29 08:02:36;;;;;;;41.85;27.60;;;4.40;99.90;;;;;;5038614;28;20404;-83
2023/01/29 08:05:02;;;;;;;40.67;27.88;;;4.40;99.90;;;;;;5036010;28;20044;-84
2023/01/29 08:07:27;;;;;;;41.80;25.98;;;4.40;99.90;;;;;;5020271;28;20060;-85
2023/01/29 08:09:53;;;;;;;38.40;26.83;;;4.30;99.90;;;;;;5035633;28;20453;-84
2023/01/29 08:12:19;;;;;;;39.05;26.05;;;4.40;99.90;;;;;;5036359;28;20471;-85
2023/01/29 08:14:45;;;;;;;37.65;26.88;;;4.40;99.90;;;;;;5055990;28;20594;-85
2023/01/29 08:17:12;;;;;;;35.15;25.90;;;4.50;99.90;;;;;;5044096;28;20040;-84
2023/01/29 08:19:37;;;;;;;39.05;28.23;;;4.60;99.90;;;;;;5043792;28;20502;-84
2023/01/29 08:22:04;;;;;;;40.58;27.25;;;4.50;99.90;;;;;;5040122;28;20039;-84
2023/01/29 08:24:29;;;;;;;37.05;27.65;;;4.60;99.90;;;;;;5039478;28;20975;-84
2023/01/29 08:26:55;;;;;;;38.97;27.52;;;4.60;99.90;;;;;;5041900;28;20032;-84
2023/01/29 08:29:21;;;;;;;38.65;26.60;;;4.60;99.90;;;;;;5042253;28;20048;-85
2023/01/29 08:31:47;;;;;;;38.78;27.17;;;4.60;99.90;;;;;;5041349;28;20040;-84
2023/01/29 08:34:12;;;;;;;37.28;27.23;;;4.70;99.90;;;;;;5054765;28;20050;-84
2023/01/29 08:36:38;;;;;;;37.47;27.75;;;4.60;99.90;;;;;;5040992;28;20526;-84
2023/01/29 08:39:04;;;;;;;39.33;27.60;;;4.70;99.90;;;;;;5038894;28;20040;-84
2023/01/29 08:41:29;;;;;;;38.20;28.10;;;4.60;99.90;;;;;;5038351;28;20489;-84
2023/01/29 08:43:56;;;;;;;40.17;28.38;;;4.60;99.90;;;;;;5044903;28;20036;-83
2023/01/29 08:46:22;;;;;;;38.50;27.52;;;4.70;99.90;;;;;;5056445;28;20577;-85
2023/01/29 08:48:48;;;;;;;38.95;28.48;;;4.70;99.90;;;;;;5054565;28;20336;-84
2023/01/29 08:51:14;;;;;;;44.08;27.77;;;4.60;99.90;;;;;;5040705;28;20708;-84
2023/01/29 08:53:39;;;;;;;36.55;26.65;;;4.60;99.90;;;;;;5052395;28;20064;-83
2023/01/29 08:56:07;;;;;;;42.50;28.10;;;4.70;99.90;;;;;;5041698;28;20047;-84
2023/01/29 08:58:33;;;;;;;38.30;27.38;;;4.70;99.90;;;;;;5057166;28;20551;-84
2023/01/29 09:01:08;;;;;;;39.78;28.67;;;4.70;99.90;;;;;;5056358;28;20050;-84
2023/01/29 09:03:34;;;;;;;44.35;27.88;;;4.70;99.90;;;;;;5040602;28;20411;-85
2023/01/29 09:06:00;;;;;;;40.33;27.38;;;4.80;99.90;;;;;;5040473;28;20028;-85
2023/01/29 09:08:25;;;;;;;43.00;29.27;;;4.90;99.90;;;;;;5034620;28;20079;-85
2023/01/29 09:10:51;;;;;;;43.38;27.42;;;4.90;99.90;;;;;;5035346;28;20076;-84
2023/01/29 09:13:17;;;;;;;43.95;29.45;;;4.90;99.90;;;;;;5057693;28;20093;-84
2023/01/29 09:15:42;;;;;;;40.47;27.88;;;5.00;99.90;;;;;;5039735;28;20040;-84
2023/01/29 09:18:08;;;;;;;47.65;28.73;;;5.10;99.90;;;;;;5039284;28;20382;-84
2023/01/29 09:20:36;;;;;;;40.05;27.10;;;5.10;99.90;;;;;;5036556;28;20036;-84
2023/01/29 09:23:11;;;;;;;40.40;28.42;;;5.00;99.90;;;;;;5034562;28;20039;-84
2023/01/29 09:25:40;;;;;;;43.63;28.40;;;4.90;99.90;;;;;;5058549;28;20560;-85
2023/01/29 09:28:05;;;;;;;42.00;27.02;;;4.90;99.90;;;;;;5041633;28;20184;-84
2023/01/29 09:30:33;;;;;;;44.92;28.30;;;4.90;99.90;;;;;;5036816;28;20519;-84
2023/01/29 09:33:00;;;;;;;42.88;27.95;;;5.00;99.90;;;;;;5038671;28;20068;-85
2023/01/29 09:35:25;;;;;;;40.55;27.90;;;5.00;99.90;;;;;;5038330;28;20043;-84
2023/01/29 09:37:51;;;;;;;41.17;27.00;;;5.00;99.90;;;;;;5035346;28;20273;-84
2023/01/29 09:40:51;;;;;;;42.00;27.52;;;5.00;99.90;;;;;;5055483;28;20195;-84
2023/01/29 09:43:18;;;;;;;42.03;28.75;;;5.00;99.90;;;;;;4997219;28;20032;-85
2023/01/29 09:46:31;;;;;;;42.88;28.48;;;5.10;99.90;;;;;;5052921;28;20024;-85
2023/01/29 09:49:08;;;;;;;42.35;27.67;;;5.00;99.90;;;;;;4993630;28;20573;-85
2023/01/29 09:51:39;;;;;;;45.30;29.05;;;5.10;99.90;;;;;;5046752;28;20606;-84
2023/01/29 09:54:24;;;;;;;39.42;26.80;;;5.10;99.90;;;;;;5072804;28;20036;-85
2023/01/29 09:56:54;;;;;;;44.88;27.48;;;5.20;99.90;;;;;;5053100;28;20035;-84
2023/01/29 09:59:23;;;;;;;48.13;28.80;;;5.20;99.90;;;;;;5040491;28;20043;-84
2023/01/29 10:02:09;;;;;;;41.78;27.98;;;5.20;99.90;;;;;;5056431;28;20036;-85
2023/01/29 10:05:06;;;;;;;45.03;27.98;;;5.30;99.90;;;;;;5041373;28;20358;-84
2023/01/29 10:07:59;;;;;;;40.22;27.00;;;5.40;99.90;;;;;;5038935;28;20036;-85
2023/01/29 10:10:48;;;;;;;43.40;27.15;;;5.40;99.90;;;;;;5055067;28;20123;-84
2023/01/29 10:13:18;;;;;;;42.78;26.90;;;5.40;99.90;;;;;;5007339;28;20055;-85
2023/01/29 10:16:03;;;;;;;40.67;24.85;;;5.30;99.90;;;;;;5040823;28;20059;-84
2023/01/29 10:19:08;;;;;;;41.87;27.57;;;5.20;99.90;;;;;;5042045;28;20056;-84
2023/01/29 10:21:44;;;;;;;47.45;27.35;;;5.20;99.90;;;;;;5037922;28;20819;-84
2023/01/29 10:24:36;;;;;;;45.17;27.65;;;5.20;99.90;;;;;;5051575;28;20982;-84
2023/01/29 10:27:11;;;;;;;46.97;29.08;;;5.20;99.90;;;;;;5009218;28;20036;-84
2023/01/29 10:29:40;;;;;;;42.30;27.50;;;5.30;99.90;;;;;;5054013;28;20125;-85
2023/01/29 10:32:22;;;;;;;44.83;28.25;;;5.30;99.90;;;;;;5056351;28;20399;-85
2023/01/29 10:34:55;;;;;;;43.25;27.65;;;5.20;99.90;;;;;;5038852;28;20151;-84
2023/01/29 10:37:40;;;;;;;45.25;28.90;;;5.10;99.90;;;;;;5051079;28;20174;-84
2023/01/29 10:40:22;;;;;;;46.35;29.20;;;5.10;99.90;;;;;;5036576;28;20054;-84
2023/01/29 10:43:16;;;;;;;44.80;28.50;;;5.20;99.90;;;;;;5041062;28;20115;-85
2023/01/29 10:45:59;;;;;;;45.15;29.33;;;5.10;99.90;;;;;;5061220;28;20682;-84
2023/01/29 10:49:14;;;;;;;48.45;30.02;;;5.10;99.90;;;;;;5058142;28;20039;-85
2023/01/29 10:52:07;;;;;;;50.45;28.85;;;5.10;99.90;;;;;;5035204;28;20060;-84
2023/01/29 10:54:44;;;;;;;47.58;29.08;;;5.10;99.90;;;;;;5059703;28;20039;-84
2023/01/29 10:57:15;;;;;;;47.25;29.77;;;5.10;99.90;;;;;;5059869;28;20040;-83
2023/01/29 11:00:22;;;;;;;48.15;29.13;;;5.20;99.90;;;;;;5057305;28;20147;-84
2023/01/29 11:02:50;;;;;;;51.13;30.35;;;5.20;99.90;;;;;;5057456;28;20059;-84
2023/01/29 11:05:36;;;;;;;52.80;30.25;;;5.20;99.90;;;;;;5041015;28;20051;-84
2023/01/29 11:08:15;;;;;;;50.10;29.33;;;5.30;99.90;;;;;;5036612;28;20063;-84
2023/01/29 11:11:08;;;;;;;53.25;30.83;;;5.20;99.90;;;;;;5058598;28;20112;-84
2023/01/29 11:13:49;;;;;;;51.25;30.20;;;5.30;99.90;;;;;;5054400;28;20406;-84
2023/01/29 11:16:18;;;;;;;51.15;28.85;;;5.30;99.90;;;;;;5035593;28;20063;-84
2023/01/29 11:18:53;;;;;;;53.25;30.92;;;5.40;99.90;;;;;;5043406;28;20048;-84
2023/01/29 11:21:19;;;;;;;48.88;28.85;;;5.40;99.90;;;;;;5042012;28;20903;-84
2023/01/29 11:23:45;;;;;;;45.83;28.52;;;5.40;99.90;;;;;;5058994;28;20242;-84
2023/01/29 11:26:19;;;;;;;44.40;25.80;;;5.50;99.90;;;;;;5040823;28;20035;-84
2023/01/29 11:28:47;;;;;;;44.72;26.98;;;5.40;99.90;;;;;;5043719;28;20527;-84
2023/01/29 11:31:26;;;;;;;46.08;28.13;;;5.50;99.90;;;;;;5059655;28;20036;-84
2023/01/29 11:34:02;;;;;;;45.75;27.13;;;5.60;99.90;;;;;;5039807;28;20041;-84
2023/01/29 11:36:37;;;;;;;44.70;26.73;;;5.50;99.90;;;;;;5056371;28;20035;-84
2023/01/29 11:39:22;;;;;;;44.97;27.27;;;5.60;99.90;;;;;;5040939;28;20137;-84
2023/01/29 11:42:00;;;;;;;41.78;26.27;;;5.60;99.90;;;;;;5041211;28;20341;-84
2023/01/29 11:44:35;;;;;;;41.08;25.73;;;5.70;99.90;;;;;;5043756;28;20036;-85
2023/01/29 11:47:10;;;;;;;48.47;28.52;;;5.60;99.90;;;;;;5059051;28;20028;-84
2023/01/29 11:49:40;;;;;;;46.92;27.13;;;5.60;99.90;;;;;;5056742;28;20328;-85
2023/01/29 11:52:09;;;;;;;43.58;27.27;;;5.60;99.90;;;;;;5074622;28;20040;-84
2023/01/29 11:54:46;;;;;;;47.17;29.30;;;5.60;99.90;;;;;;5060040;28;20050;-85
2023/01/29 11:57:29;;;;;;;47.00;27.10;;;5.70;99.90;;;;;;5055057;28;20035;-84
2023/01/29 11:59:59;;;;;;;48.33;27.05;;;5.70;99.90;;;;;;5059720;28;20050;-84
2023/01/29 12:02:30;;;;;;;48.42;28.15;;;5.70;99.90;;;;;;5043842;28;20028;-84
2023/01/29 12:05:00;;;;;;;41.78;24.98;;;5.90;99.90;;;;;;5044060;28;20075;-84
2023/01/29 12:07:27;;;;;;;43.33;25.98;;;5.80;99.90;;;;;;5036657;28;20040;-85
2023/01/29 12:09:56;;;;;;;47.33;26.25;;;5.80;99.90;;;;;;5055356;28;20032;-85
2023/01/29 12:12:34;;;;;;;43.15;25.40;;;5.80;99.90;;;;;;5043854;28;20573;-85
2023/01/29 12:15:18;;;;;;;42.50;28.00;;;6.00;99.90;;;;;;5039385;28;20054;-85
2023/01/29 12:17:58;;;;;;;40.20;26.05;;;5.90;99.90;;;;;;5042007;28;20052;-84
2023/01/29 12:20:37;;;;;;;42.30;26.85;;;5.90;99.90;;;;;;5056309;28;21228;-84
2023/01/29 12:23:16;;;;;;;39.97;24.02;;;5.80;99.90;;;;;;5036305;28;20040;-85
2023/01/29 12:25:57;;;;;;;39.42;25.23;;;5.60;99.90;;;;;;5037536;28;20036;-85
2023/01/29 12:28:32;;;;;;;40.40;24.63;;;5.70;99.90;;;;;;5055938;28;20362;-85
2023/01/29 12:31:01;;;;;;;41.75;27.27;;;5.60;99.90;;;;;;5040047;28;20485;-84
2023/01/29 12:33:41;;;;;;;38.13;24.27;;;5.60;99.90;;;;;;5042422;28;20044;-85
2023/01/29 12:36:24;;;;;;;42.95;27.42;;;5.40;99.90;;;;;;5040848;28;20044;-85
2023/01/29 12:38:50;;;;;;;40.55;25.50;;;5.40;99.90;;;;;;5036343;28;20040;-84
2023/01/29 12:41:21;;;;;;;39.13;24.70;;;5.40;99.90;;;;;;5038292;28;20415;-83
2023/01/29 12:43:54;;;;;;;39.13;26.60;;;5.40;99.90;;;;;;5057051;28;20032;-85
2023/01/29 12:46:37;;;;;;;39.55;26.30;;;5.50;99.90;;;;;;5039698;28;20024;-84
2023/01/29 12:49:11;;;;;;;45.42;26.75;;;5.40;99.90;;;;;;5057750;28;20130;-85
2023/01/29 12:51:44;;;;;;;41.70;27.13;;;5.50;99.90;;;;;;5034678;28;20120;-85
2023/01/29 12:54:47;;;;;;;42.55;27.88;;;5.60;99.90;;;;;;5041758;28;20113;-84
2023/01/29 12:57:22;;;;;;;43.50;26.27;;;5.50;99.90;;;;;;5052366;28;20039;-83
2023/01/29 12:59:54;;;;;;;44.15;26.83;;;5.50;99.90;;;;;;5038048;28;20479;-84
2023/01/29 13:02:39;;;;;;;39.40;26.13;;;5.50;99.90;;;;;;5036220;28;20048;-85
2023/01/29 13:05:25;;;;;;;41.03;26.33;;;5.50;99.90;;;;;;5037217;28;20456;-85
2023/01/29 13:07:57;;;;;;;43.58;26.90;;;5.60;99.90;;;;;;5036465;28;20032;-84
2023/01/29 13:10:46;;;;;;;47.10;28.48;;;5.50;99.90;;;;;;5057343;28;20107;-84
2023/01/29 13:13:30;;;;;;;45.97;29.52;;;5.60;99.90;;;;;;5037011;28;20033;-84
2023/01/29 13:15:58;;;;;;;41.25;28.00;;;5.60;99.90;;;;;;5057911;28;20364;-84
2023/01/29 13:18:36;;;;;;;44.08;27.85;;;5.60;99.90;;;;;;5056900;28;20127;-84
2023/01/29 13:21:03;;;;;;;42.40;28.75;;;5.50;99.90;;;;;;5038252;28;20051;-84
2023/01/29 13:23:29;;;;;;;42.47;27.13;;;5.40;99.90;;;;;;5032865;28;20728;-84
2023/01/29 13:25:56;;;;;;;44.95;27.00;;;5.50;99.90;;;;;;5041526;28;20039;-84
2023/01/29 13:28:25;;;;;;;40.60;26.92;;;5.40;99.90;;;;;;5056407;28;20459;-85
2023/01/29 13:31:17;;;;;;;42.83;27.73;;;5.40;99.90;;;;;;5058002;28;20177;-84
2023/01/29 13:33:50;;;;;;;39.97;28.17;;;5.50;99.90;;;;;;5052798;28;20060;-84
2023/01/29 13:36:23;;;;;;;40.97;26.35;;;5.60;99.90;;;;;;5037873;28;20427;-85